Time,TemperatureF,DewpointF,PressureIn,WindDirection,WindDirectionDegrees,WindSpeedMPH,WindSpeedGustMPH,Humidity,HourlyPrecipIn,Conditions,Clouds,dailyrainin,SoftwareType,DateUTC
2013-06-10 00:05:00,66.1,65.0,28.37,South,179,0.0,1.0,97,0.22,,,0.22,weatherlink.com 1.10,2013-06-10 04:05:00,
2013-06-10 00:20:00,65.8,65.0,28.37,South,179,0.0,1.0,97,0.25,,,0.26,weatherlink.com 1.10,2013-06-10 04:20:00,
2013-06-10 00:35:00,65.8,65.0,28.36,South,179,0.0,0.0,97,0.20,,,0.27,weatherlink.com 1.10,2013-06-10 04:35:00,
2013-06-10 00:50:00,65.5,65.0,28.35,NNW,328,0.0,0.0,97,0.12,,,0.28,weatherlink.com 1.10,2013-06-10 04:50:00,
2013-06-10 01:05:00,65.3,65.0,28.35,NNW,329,0.0,0.0,97,0.05,,,0.28,weatherlink.com 1.10,2013-06-10 05:05:00,
2013-06-10 01:20:00,65.3,65.0,28.34,NNW,329,0.0,1.0,98,0.03,,,0.29,weatherlink.com 1.10,2013-06-10 05:20:00,
2013-06-10 01:35:00,65.1,64.0,28.34,NNW,329,0.0,0.0,97,0.02,,,0.29,weatherlink.com 1.10,2013-06-10 05:35:00,
2013-06-10 01:50:00,64.9,64.0,28.33,NNW,329,0.0,0.0,98,0.01,,,0.29,weatherlink.com 1.10,2013-06-10 05:50:00,
2013-06-10 02:05:00,64.9,64.0,28.32,NNW,329,0.0,0.0,98,0.01,,,0.29,weatherlink.com 1.10,2013-06-10 06:05:00,
2013-06-10 02:20:00,64.8,64.0,28.32,NNW,329,0.0,0.0,98,0.00,,,0.29,weatherlink.com 1.10,2013-06-10 06:20:00,
2013-06-10 02:35:00,64.9,64.0,28.32,NNW,328,0.0,1.0,98,0.00,,,0.29,weatherlink.com 1.10,2013-06-10 06:35:00,
2013-06-10 02:50:00,64.9,64.0,28.31,NNW,328,0.0,1.0,98,0.00,,,0.29,weatherlink.com 1.10,2013-06-10 06:50:00,
2013-06-10 03:05:00,64.8,64.0,28.31,NNW,329,0.0,0.0,98,0.00,,,0.29,weatherlink.com 1.10,2013-06-10 07:05:00,
2013-06-10 03:20:00,64.7,64.0,28.30,NNW,329,0.0,0.0,98,0.00,,,0.29,weatherlink.com 1.10,2013-06-10 07:20:00,
2013-06-10 03:35:00,64.7,64.0,28.30,NNW,329,0.0,0.0,98,0.00,,,0.29,weatherlink.com 1.10,2013-06-10 07:35:00,
2013-06-10 03:50:00,64.6,64.0,28.30,NNW,329,0.0,0.0,98,0.00,,,0.29,weatherlink.com 1.10,2013-06-10 07:50:00,
2013-06-10 04:05:00,64.6,64.0,28.29,NNW,329,0.0,0.0,98,0.00,,,0.29,weatherlink.com 1.10,2013-06-10 08:05:00,
2013-06-10 04:20:00,64.5,64.0,28.29,NNW,328,0.0,0.0,98,0.01,,,0.30,weatherlink.com 1.10,2013-06-10 08:20:00,
2013-06-10 04:35:00,64.5,64.0,28.28,NNW,328,0.0,0.0,98,0.02,,,0.31,weatherlink.com 1.10,2013-06-10 08:35:00,
2013-06-10 04:50:00,64.5,64.0,28.28,NNW,329,0.0,0.0,98,0.03,,,0.32,weatherlink.com 1.10,2013-06-10 08:50:00,
2013-06-10 05:05:00,64.4,64.0,28.27,NNW,329,0.0,0.0,98,0.02,,,0.32,weatherlink.com 1.10,2013-06-10 09:05:00,
2013-06-10 05:20:00,64.3,64.0,28.27,NNW,328,0.0,0.0,98,0.02,,,0.32,weatherlink.com 1.10,2013-06-10 09:20:00,
2013-06-10 05:35:00,64.2,64.0,28.27,WSW,249,0.0,1.0,98,0.01,,,0.32,weatherlink.com 1.10,2013-06-10 09:35:00,
2013-06-10 05:50:00,64.1,64.0,28.27,WSW,249,0.0,1.0,98,0.00,,,0.32,weatherlink.com 1.10,2013-06-10 09:50:00,
2013-06-10 06:05:00,64.1,64.0,28.26,NW,314,0.0,2.0,98,0.00,,,0.32,weatherlink.com 1.10,2013-06-10 10:05:00,
2013-06-10 06:20:00,63.9,63.0,28.26,NW,314,0.0,0.0,98,0.00,,,0.32,weatherlink.com 1.10,2013-06-10 10:20:00,
2013-06-10 06:35:00,64.0,64.0,28.26,NW,314,0.0,0.0,98,0.00,,,0.32,weatherlink.com 1.10,2013-06-10 10:35:00,
2013-06-10 06:50:00,64.2,64.0,28.27,NW,314,0.0,0.0,98,0.01,,,0.33,weatherlink.com 1.10,2013-06-10 10:50:00,
2013-06-10 07:05:00,64.3,64.0,28.26,NW,314,0.0,1.0,98,0.01,,,0.33,weatherlink.com 1.10,2013-06-10 11:05:00,
2013-06-10 07:20:00,64.3,64.0,28.26,NW,326,0.0,1.0,98,0.03,,,0.35,weatherlink.com 1.10,2013-06-10 11:20:00,
2013-06-10 07:35:00,64.5,64.0,28.26,NW,326,0.0,1.0,98,0.03,,,0.35,weatherlink.com 1.10,2013-06-10 11:35:00,
2013-06-10 07:50:00,64.7,64.0,28.26,NW,326,0.0,0.0,98,0.04,,,0.37,weatherlink.com 1.10,2013-06-10 11:50:00,
2013-06-10 08:05:00,64.9,64.0,28.25,NW,326,0.0,0.0,98,0.06,,,0.39,weatherlink.com 1.10,2013-06-10 12:05:00,
2013-06-10 08:20:00,64.9,64.0,28.25,NW,323,0.0,1.0,98,0.07,,,0.42,weatherlink.com 1.10,2013-06-10 12:20:00,
2013-06-10 08:35:00,65.1,65.0,28.24,NW,323,0.0,0.0,98,0.08,,,0.43,weatherlink.com 1.10,2013-06-10 12:35:00,
2013-06-10 08:50:00,65.4,65.0,28.24,NW,323,0.0,1.0,98,0.07,,,0.44,weatherlink.com 1.10,2013-06-10 12:50:00,
2013-06-10 09:06:00,65.8,65.0,28.24,NW,323,0.0,1.0,98,0.06,,,0.45,weatherlink.com 1.10,2013-06-10 13:06:00,
2013-06-10 09:21:00,66.3,66.0,28.24,NW,325,0.0,1.0,98,0.05,,,0.47,weatherlink.com 1.10,2013-06-10 13:21:00,
2013-06-10 09:36:00,66.4,66.0,28.23,NW,323,0.0,1.0,98,0.07,,,0.50,weatherlink.com 1.10,2013-06-10 13:36:00,
2013-06-10 09:51:00,66.5,66.0,28.23,NW,323,0.0,1.0,98,0.08,,,0.52,weatherlink.com 1.10,2013-06-10 13:51:00,
2013-06-10 10:06:00,66.8,66.0,28.23,NW,323,0.0,0.0,98,0.08,,,0.53,weatherlink.com 1.10,2013-06-10 14:06:00,
2013-06-10 10:21:00,67.4,67.0,28.22,NW,323,0.0,0.0,98,0.09,,,0.56,weatherlink.com 1.10,2013-06-10 14:21:00,
2013-06-10 10:36:00,67.8,67.0,28.22,East,101,0.0,1.0,98,0.11,,,0.61,weatherlink.com 1.10,2013-06-10 14:36:00,
2013-06-10 10:51:00,68.0,67.0,28.22,East,101,0.0,1.0,97,0.10,,,0.62,weatherlink.com 1.10,2013-06-10 14:51:00,
2013-06-10 11:06:00,68.5,67.0,28.21,ESE,102,0.0,1.0,96,0.09,,,0.62,weatherlink.com 1.10,2013-06-10 15:06:00,
2013-06-10 11:21:00,69.2,68.0,28.20,East,101,0.0,1.0,96,0.07,,,0.63,weatherlink.com 1.10,2013-06-10 15:21:00,
2013-06-10 11:36:00,70.2,69.0,28.20,ESE,102,0.0,1.0,95,0.03,,,0.64,weatherlink.com 1.10,2013-06-10 15:36:00,
2013-06-10 11:51:00,71.2,69.0,28.20,South,191,1.0,5.0,94,0.02,,,0.64,weatherlink.com 1.10,2013-06-10 15:51:00,
2013-06-10 12:36:00,74.7,71.0,28.18,ESE,120,2.0,6.0,87,0.00,,,0.64,weatherlink.com 1.10,2013-06-10 16:36:00,
2013-06-10 12:51:00,76.3,72.0,28.17,SSE,155,0.0,7.0,85,0.00,,,0.64,weatherlink.com 1.10,2013-06-10 16:51:00,
2013-06-10 13:06:00,77.4,72.0,28.16,SSE,163,2.0,5.0,82,0.00,,,0.64,weatherlink.com 1.10,2013-06-10 17:06:00,
2013-06-10 13:21:00,77.0,69.0,28.15,SSE,159,1.0,7.0,77,0.00,,,0.64,weatherlink.com 1.10,2013-06-10 17:21:00,
2013-06-10 13:36:00,77.4,70.0,28.15,South,187,2.0,5.0,79,0.00,,,0.64,weatherlink.com 1.10,2013-06-10 17:36:00,
2013-06-10 13:51:00,77.9,70.0,28.14,ESE,115,6.0,8.0,76,0.00,,,0.64,weatherlink.com 1.10,2013-06-10 17:51:00,
2013-06-10 14:06:00,79.1,71.0,28.13,SE,127,4.0,11.0,76,0.00,,,0.64,weatherlink.com 1.10,2013-06-10 18:06:00,
2013-06-10 14:21:00,78.3,69.0,28.13,ESE,102,6.0,9.0,73,0.00,,,0.64,weatherlink.com 1.10,2013-06-10 18:21:00,
2013-06-10 14:36:00,76.8,69.0,28.13,SSE,159,10.0,10.0,76,0.00,,,0.64,weatherlink.com 1.10,2013-06-10 18:36:00,
2013-06-10 14:51:00,77.8,69.0,28.11,SSW,197,2.0,9.0,75,0.00,,,0.64,weatherlink.com 1.10,2013-06-10 18:51:00,
2013-06-10 15:07:00,79.2,70.0,28.10,ESE,115,4.0,11.0,73,0.00,,,0.64,weatherlink.com 1.10,2013-06-10 19:07:00,
2013-06-10 15:21:00,78.0,69.0,28.11,South,190,0.0,8.0,74,0.00,,,0.64,weatherlink.com 1.10,2013-06-10 19:21:00,
2013-06-10 15:36:00,76.7,71.0,28.12,ESE,108,2.0,3.0,81,0.00,,,0.64,weatherlink.com 1.10,2013-06-10 19:36:00,
2013-06-10 15:51:00,72.5,66.0,28.12,South,173,3.0,14.0,80,0.02,,,0.66,weatherlink.com 1.10,2013-06-10 19:51:00,
2013-06-10 16:06:00,69.5,65.0,28.13,SE,136,4.0,4.0,86,0.05,,,0.69,weatherlink.com 1.10,2013-06-10 20:06:00,
2013-06-10 16:22:00,67.7,64.0,28.14,SW,214,0.0,3.0,89,0.06,,,0.01,weatherlink.com 1.10,2013-06-10 20:22:00,
2013-06-10 16:37:00,66.9,64.0,28.14,WSW,240,0.0,1.0,90,0.07,,,0.02,weatherlink.com 1.10,2013-06-10 20:37:00,
2013-06-10 16:52:00,66.1,64.0,28.13,WSW,240,0.0,0.0,93,0.07,,,0.04,weatherlink.com 1.10,2013-06-10 20:52:00,
2013-06-10 17:07:00,66.1,64.0,28.12,ESE,111,0.0,1.0,93,0.05,,,0.05,weatherlink.com 1.10,2013-06-10 21:07:00,
2013-06-10 17:22:00,67.8,66.0,28.12,SE,146,2.0,3.0,94,0.04,,,0.05,weatherlink.com 1.10,2013-06-10 21:22:00,
2013-06-10 17:37:00,68.8,66.0,28.11,South,174,0.0,4.0,89,0.03,,,0.05,weatherlink.com 1.10,2013-06-10 21:37:00,
2013-06-10 17:52:00,69.5,66.0,28.11,SSE,165,0.0,3.0,88,0.01,,,0.05,weatherlink.com 1.10,2013-06-10 21:52:00,
2013-06-10 18:07:00,70.0,67.0,28.10,SE,130,0.0,3.0,90,0.00,,,0.05,weatherlink.com 1.10,2013-06-10 22:07:00,
2013-06-10 18:22:00,69.0,67.0,28.11,SSE,156,0.0,2.0,92,0.00,,,0.05,weatherlink.com 1.10,2013-06-10 22:22:00,
2013-06-10 18:52:00,68.2,67.0,28.11,ENE,67,0.0,1.0,94,0.00,,,0.05,weatherlink.com 1.10,2013-06-10 22:52:00,
2013-06-10 19:07:00,68.0,66.0,28.11,ENE,71,0.0,1.0,94,0.00,,,0.05,weatherlink.com 1.10,2013-06-10 23:07:00,
2013-06-10 19:22:00,67.9,66.0,28.11,North,349,1.0,2.0,94,0.00,,,0.05,weatherlink.com 1.10,2013-06-10 23:22:00,
2013-06-10 19:37:00,67.7,66.0,28.11,NW,320,3.0,3.0,94,0.00,,,0.05,weatherlink.com 1.10,2013-06-10 23:37:00,
2013-06-10 19:52:00,67.5,66.0,28.11,NW,323,2.0,3.0,93,0.00,,,0.05,weatherlink.com 1.10,2013-06-10 23:52:00,
2013-06-10 20:07:00,67.3,66.0,28.11,NW,311,0.0,2.0,94,0.00,,,0.05,weatherlink.com 1.10,2013-06-11 00:07:00,
2013-06-10 20:22:00,66.4,65.0,28.11,NW,312,0.0,0.0,94,0.00,,,0.05,weatherlink.com 1.10,2013-06-11 00:22:00,
2013-06-10 20:37:00,65.4,64.0,28.12,NW,311,0.0,1.0,95,0.00,,,0.05,weatherlink.com 1.10,2013-06-11 00:37:00,
2013-06-10 20:52:00,64.3,63.0,28.13,NW,312,0.0,0.0,96,0.00,,,0.05,weatherlink.com 1.10,2013-06-11 00:52:00,
2013-06-10 21:07:00,63.5,62.0,28.13,NW,312,0.0,0.0,96,0.00,,,0.05,weatherlink.com 1.10,2013-06-11 01:07:00,
2013-06-10 21:22:00,62.7,62.0,28.13,NW,311,0.0,0.0,96,0.00,,,0.05,weatherlink.com 1.10,2013-06-11 01:22:00,
2013-06-10 21:37:00,62.4,62.0,28.13,NW,312,0.0,0.0,97,0.00,,,0.05,weatherlink.com 1.10,2013-06-11 01:37:00,
2013-06-10 21:52:00,62.2,61.0,28.14,NW,312,0.0,0.0,97,0.00,,,0.05,weatherlink.com 1.10,2013-06-11 01:52:00,
2013-06-10 22:07:00,62.2,62.0,28.15,NW,312,0.0,0.0,98,0.00,,,0.05,weatherlink.com 1.10,2013-06-11 02:07:00,
2013-06-10 22:22:00,62.3,62.0,28.15,SSW,200,0.0,0.0,98,0.00,,,0.05,weatherlink.com 1.10,2013-06-11 02:22:00,
2013-06-10 22:37:00,62.1,61.0,28.15,SSW,200,0.0,0.0,97,0.00,,,0.05,weatherlink.com 1.10,2013-06-11 02:37:00,
2013-06-10 22:52:00,61.8,61.0,28.15,SSW,200,0.0,0.0,97,0.00,,,0.05,weatherlink.com 1.10,2013-06-11 02:52:00,
2013-06-10 23:07:00,61.1,60.0,28.15,SSW,200,0.0,0.0,97,0.00,,,0.05,weatherlink.com 1.10,2013-06-11 03:07:00,
2013-06-10 23:22:00,60.8,60.0,28.15,SSW,200,0.0,0.0,97,0.00,,,0.05,weatherlink.com 1.10,2013-06-11 03:22:00,
2013-06-10 23:37:00,60.8,60.0,28.15,SSW,200,0.0,0.0,98,0.00,,,0.05,weatherlink.com 1.10,2013-06-11 03:37:00,
2013-06-10 23:52:00,60.9,60.0,28.16,SSW,200,0.0,0.0,98,0.00,,,0.05,weatherlink.com 1.10,2013-06-11 03:52:00,